Time;durP1;ratioP1;P1;durP2;ratioP2;P2;SDS_P1;SDS_P2;PMS_P1;PMS_P2;Temp;Humidity;BMP_temperature;BMP_pressure;BME280_temperature;BME280_humidity;BME280_pressure;Samples;Min_cycle;Max_cycle;Signal;HPM_P1;HPM_P2
2022/10/06 00:00:43;;;;;;;7.42;5.17;;;26.20;99.90;;;;;;1822102;77;21739;-88
2022/10/06 00:03:14;;;;;;;7.50;4.35;;;26.30;99.90;;;;;;1826191;77;21107;-88
2022/10/06 00:05:44;;;;;;;12.58;4.80;;;26.20;99.90;;;;;;1820790;77;21148;-88
2022/10/06 00:08:16;;;;;;;4.10;2.37;;;26.20;99.90;;;;;;1821835;77;21679;-88
2022/10/06 00:10:46;;;;;;;3.35;1.67;;;26.20;99.90;;;;;;1825859;77;21103;-86
2022/10/06 00:13:17;;;;;;;2.67;0.95;;;26.10;99.90;;;;;;1825987;77;21208;-88
2022/10/06 00:15:48;;;;;;;2.22;0.85;;;26.00;99.90;;;;;;1841403;77;21658;-86
2022/10/06 00:18:19;;;;;;;1.60;0.50;;;25.90;99.90;;;;;;1838927;77;21164;-88
2022/10/06 00:20:52;;;;;;;0.93;0.30;;;25.80;99.90;;;;;;1823987;77;21133;-88
2022/10/06 00:23:23;;;;;;;1.02;0.50;;;25.70;99.90;;;;;;1831707;77;21119;-91
2022/10/06 00:25:54;;;;;;;1.42;0.60;;;25.50;99.90;;;;;;1829977;77;21250;-89
2022/10/06 00:28:25;;;;;;;2.65;0.55;;;25.40;99.90;;;;;;1830338;77;21186;-87
2022/10/06 00:30:56;;;;;;;1.52;0.50;;;25.30;99.90;;;;;;1833021;77;21935;-87
2022/10/06 00:33:27;;;;;;;2.05;0.40;;;25.30;99.90;;;;;;1812775;78;21243;-88
2022/10/06 00:35:59;;;;;;;1.70;0.70;;;25.20;99.90;;;;;;1817181;77;21173;-88
2022/10/06 00:38:30;;;;;;;2.72;0.70;;;25.10;99.90;;;;;;1810607;78;21164;-89
2022/10/06 00:41:01;;;;;;;1.60;0.50;;;25.10;99.90;;;;;;1789873;79;21219;-86
2022/10/06 00:43:34;;;;;;;2.47;0.50;;;25.00;99.90;;;;;;1831395;77;21188;-87
2022/10/06 00:46:07;;;;;;;2.75;0.68;;;25.10;99.90;;;;;;1826819;77;21208;-85
2022/10/06 00:48:38;;;;;;;1.32;0.40;;;25.00;99.90;;;;;;1819848;77;21148;-87
2022/10/06 00:51:09;;;;;;;1.87;0.70;;;25.10;99.90;;;;;;1823610;77;21136;-88
2022/10/06 00:53:40;;;;;;;1.85;0.62;;;25.10;99.90;;;;;;1818915;77;21121;-88
2022/10/06 00:56:14;;;;;;;3.17;0.55;;;25.20;99.90;;;;;;1813519;79;21224;-88
2022/10/06 00:58:44;;;;;;;3.22;0.60;;;25.30;99.90;;;;;;1819979;78;21127;-89
2022/10/06 01:01:15;;;;;;;1.98;0.70;;;25.40;99.90;;;;;;1821202;77;21129;-88
2022/10/06 01:03:58;;;;;;;;;;;;;;;;;;;;;
2022/10/06 01:09:34;;;;;;;2.47;0.50;;;25.70;99.90;;;;;;1666034;85;21219;-86
2022/10/06 01:12:08;;;;;;;2.98;0.50;;;25.70;99.90;;;;;;1691870;84;22021;-88
2022/10/06 01:18:22;;;;;;;1.20;0.60;;;25.80;99.90;;;;;;1580103;89;21215;-89
2022/10/06 01:20:59;;;;;;;1.30;0.35;;;25.90;99.90;;;;;;1612954;85;21235;-86
2022/10/06 01:23:35;;;;;;;4.37;0.65;;;25.90;99.90;;;;;;1583554;89;21277;-89
2022/10/06 01:26:08;;;;;;;0.75;0.40;;;26.00;99.90;;;;;;1636288;87;21316;-86
2022/10/06 01:28:40;;;;;;;2.12;0.50;;;26.10;99.90;;;;;;1622910;86;21248;-87
2022/10/06 01:31:11;;;;;;;1.35;0.40;;;26.20;99.90;;;;;;1647778;87;21287;-88
2022/10/06 01:33:41;;;;;;;1.35;0.37;;;26.20;99.90;;;;;;1647538;86;21234;-88
2022/10/06 01:36:12;;;;;;;2.12;0.68;;;26.30;99.90;;;;;;1645744;87;21181;-88
2022/10/06 01:38:43;;;;;;;0.98;0.50;;;26.30;99.90;;;;;;1683319;84;21237;-87
2022/10/06 01:41:33;;;;;;;2.15;0.70;;;26.40;99.90;;;;;;1682529;84;21295;-85
2022/10/06 01:44:08;;;;;;;4.45;0.80;;;26.40;99.90;;;;;;1689586;84;21213;-88
2022/10/06 01:46:42;;;;;;;3.20;0.33;;;26.50;99.90;;;;;;1734066;79;21159;-85
2022/10/06 01:49:12;;;;;;;1.95;0.70;;;26.60;99.90;;;;;;1787191;79;21454;-88
2022/10/06 01:51:44;;;;;;;1.57;0.53;;;26.60;99.90;;;;;;1772464;79;21251;-88
2022/10/06 01:54:16;;;;;;;1.90;0.42;;;26.70;99.90;;;;;;1793191;77;21147;-87
2022/10/06 01:56:46;;;;;;;1.30;0.42;;;26.60;99.90;;;;;;1855813;76;21174;-88
2022/10/06 01:59:17;;;;;;;1.87;0.62;;;26.70;99.90;;;;;;1851844;76;21134;-89
2022/10/06 02:01:48;;;;;;;1.12;0.40;;;26.70;99.90;;;;;;1858738;77;21224;-88
2022/10/06 02:04:19;;;;;;;1.57;0.55;;;26.70;99.90;;;;;;1850807;76;21238;-88
2022/10/06 02:06:50;;;;;;;2.85;0.60;;;26.80;99.90;;;;;;1843571;76;21126;-85
2022/10/06 02:09:21;;;;;;;2.42;0.70;;;26.80;99.90;;;;;;1845178;76;21212;-86
2022/10/06 02:11:52;;;;;;;2.77;0.90;;;26.90;99.90;;;;;;1848687;77;21114;-87
2022/10/06 02:14:23;;;;;;;0.85;0.40;;;26.90;99.90;;;;;;1835884;76;21139;-87
2022/10/06 02:16:54;;;;;;;4.10;0.50;;;27.00;99.90;;;;;;1808423;78;21238;-87
2022/10/06 02:19:25;;;;;;;5.55;1.05;;;27.00;99.90;;;;;;1783141;79;21225;-87
2022/10/06 02:21:57;;;;;;;5.90;0.80;;;27.20;99.90;;;;;;1836982;76;21642;-88
2022/10/06 02:24:29;;;;;;;2.55;0.60;;;27.30;99.90;;;;;;1838276;77;21098;-86
2022/10/06 02:26:59;;;;;;;3.22;1.30;;;27.40;99.90;;;;;;1850645;76;21235;-87
2022/10/06 02:29:30;;;;;;;1.60;0.70;;;27.50;99.90;;;;;;1838484;77;21090;-87
2022/10/06 02:32:01;;;;;;;1.65;0.70;;;27.60;99.90;;;;;;1848519;76;21114;-87
2022/10/06 02:34:32;;;;;;;1.20;0.53;;;27.70;99.90;;;;;;1856063;77;21119;-88
2022/10/06 02:37:16;;;;;;;1.22;0.40;;;27.80;99.90;;;;;;1852622;76;21248;-87
2022/10/06 02:39:43;;;;;;;2.40;0.60;;;27.90;99.90;;;;;;1844715;76;21170;-88
2022/10/06 02:42:13;;;;;;;1.90;0.53;;;28.00;99.80;;;;;;1838586;76;21232;-89
2022/10/06 02:44:44;;;;;;;2.92;0.70;;;28.10;99.70;;;;;;1849594;76;21451;-85
2022/10/06 02:47:15;;;;;;;1.75;0.40;;;28.20;99.50;;;;;;1850024;76;21123;-87
2022/10/06 02:49:46;;;;;;;1.02;0.50;;;28.30;99.30;;;;;;1839635;76;21587;-87
2022/10/06 02:52:17;;;;;;;1.25;0.50;;;28.40;99.30;;;;;;1817567;77;21176;-86
2022/10/06 02:54:47;;;;;;;1.80;0.60;;;28.50;99.40;;;;;;1802684;78;21226;-88
2022/10/06 02:57:18;;;;;;;2.27;0.60;;;28.60;98.50;;;;;;1823755;78;21093;-86
2022/10/06 02:59:49;;;;;;;1.50;0.50;;;28.70;98.20;;;;;;1793394;78;21113;-88
2022/10/06 03:02:19;;;;;;;6.92;0.80;;;28.80;98.10;;;;;;1842825;76;21263;-86
2022/10/06 03:04:50;;;;;;;1.20;0.50;;;28.80;98.90;;;;;;1811238;78;21222;-73
2022/10/06 03:07:21;;;;;;;2.02;0.88;;;28.90;98.30;;;;;;1821558;78;21141;-75
2022/10/06 03:09:51;;;;;;;3.15;1.10;;;29.10;97.90;;;;;;1843270;76;21220;-75
2022/10/06 03:12:22;;;;;;;1.72;0.50;;;29.20;97.80;;;;;;1845356;76;21142;-76
2022/10/06 03:14:53;;;;;;;1.52;0.50;;;29.30;97.40;;;;;;1853342;76;21193;-77
2022/10/06 03:17:24;;;;;;;1.60;0.42;;;29.30;96.90;;;;;;1844263;76;21657;-76
2022/10/06 03:19:56;;;;;;;3.17;0.70;;;29.50;96.90;;;;;;1855001;76;21186;-76
2022/10/06 03:22:26;;;;;;;2.25;0.40;;;29.60;96.80;;;;;;1846172;76;21236;-76
2022/10/06 03:24:57;;;;;;;3.65;1.15;;;29.60;96.80;;;;;;1850189;76;21555;-75
2022/10/06 03:27:28;;;;;;;1.90;0.68;;;29.70;96.30;;;;;;1844951;76;21224;-75
2022/10/06 03:29:59;;;;;;;1.05;0.35;;;29.70;96.10;;;;;;1866203;76;21567;-76
2022/10/06 03:32:30;;;;;;;1.30;0.40;;;29.70;95.90;;;;;;1845810;76;21675;-75
2022/10/06 03:35:02;;;;;;;1.40;0.42;;;29.70;95.60;;;;;;1852212;76;21098;-76
2022/10/06 03:37:33;;;;;;;4.08;1.50;;;29.70;96.40;;;;;;1854764;76;21184;-75
2022/10/06 03:40:04;;;;;;;1.00;0.45;;;29.80;96.00;;;;;;1834497;76;21126;-75
2022/10/06 03:42:34;;;;;;;0.88;0.40;;;29.80;95.70;;;;;;1853232;76;21236;-76
2022/10/06 03:45:06;;;;;;;2.45;0.50;;;29.90;95.70;;;;;;1855788;76;21613;-75
2022/10/06 03:47:36;;;;;;;1.45;0.50;;;30.00;95.60;;;;;;1845455;76;21169;-74
2022/10/06 03:50:08;;;;;;;2.08;0.60;;;30.10;97.10;;;;;;1851670;76;21183;-74
2022/10/06 03:52:38;;;;;;;2.55;0.60;;;30.20;95.80;;;;;;1843534;76;21153;-75
2022/10/06 03:55:10;;;;;;;3.92;0.42;;;30.30;95.70;;;;;;1848161;76;21568;-75
2022/10/06 03:57:41;;;;;;;2.77;0.90;;;30.40;95.30;;;;;;1794810;79;21723;-75
2022/10/06 04:00:12;;;;;;;1.72;0.65;;;30.50;95.80;;;;;;1845830;76;21579;-75
2022/10/06 04:02:43;;;;;;;2.33;0.85;;;30.50;95.00;;;;;;1840621;76;21189;-77
2022/10/06 04:05:14;;;;;;;2.22;0.53;;;30.60;95.00;;;;;;1799903;78;21686;-77
2022/10/06 04:07:46;;;;;;;2.58;0.90;;;30.60;94.50;;;;;;1770434;79;21170;-75
2022/10/06 04:10:16;;;;;;;1.62;0.68;;;30.80;95.10;;;;;;1844937;76;21175;-75
2022/10/06 04:12:47;;;;;;;1.65;0.72;;;30.80;95.10;;;;;;1842027;76;21654;-75
2022/10/06 04:15:18;;;;;;;1.40;0.60;;;30.90;94.80;;;;;;1843355;76;21072;-76
2022/10/06 04:17:49;;;;;;;2.30;0.72;;;30.90;94.30;;;;;;1841876;76;21628;-76
2022/10/06 04:20:20;;;;;;;0.98;0.50;;;30.90;94.40;;;;;;1809641;78;21608;-75
2022/10/06 04:22:51;;;;;;;1.15;0.57;;;30.80;94.30;;;;;;1844749;76;21149;-76
2022/10/06 04:25:22;;;;;;;1.57;0.72;;;30.80;94.70;;;;;;1866303;76;21094;-78
2022/10/06 04:27:52;;;;;;;1.37;0.80;;;30.70;94.80;;;;;;1865438;76;21217;-77
2022/10/06 04:30:25;;;;;;;2.40;1.00;;;30.60;95.20;;;;;;1873894;76;21789;-74
2022/10/06 04:32:55;;;;;;;1.72;0.62;;;30.60;95.10;;;;;;1871645;76;21220;-73
2022/10/06 04:35:26;;;;;;;2.40;0.70;;;30.50;94.80;;;;;;1870065;76;21550;-75
2022/10/06 04:37:57;;;;;;;1.30;0.60;;;30.50;95.20;;;;;;1871300;76;21063;-76
2022/10/06 04:40:27;;;;;;;2.20;0.90;;;30.50;95.00;;;;;;1862984;76;21212;-76
2022/10/06 04:42:58;;;;;;;1.95;0.70;;;30.60;95.00;;;;;;1865828;76;21186;-75
2022/10/06 04:45:29;;;;;;;1.55;0.70;;;30.70;94.90;;;;;;1860977;76;21602;-74
2022/10/06 04:48:00;;;;;;;1.75;0.60;;;30.80;94.70;;;;;;1867116;76;21072;-76
2022/10/06 04:50:31;;;;;;;2.40;0.95;;;30.70;94.80;;;;;;1871662;76;21172;-76
2022/10/06 04:53:02;;;;;;;2.75;1.05;;;30.70;95.10;;;;;;1871950;76;21566;-76
2022/10/06 04:55:33;;;;;;;2.45;1.20;;;30.70;95.20;;;;;;1858489;76;21583;-76
2022/10/06 04:58:03;;;;;;;4.08;1.10;;;30.70;95.20;;;;;;1858860;76;21118;-76
2022/10/06 05:00:34;;;;;;;2.30;1.00;;;30.70;95.60;;;;;;1815753;77;21216;-75
2022/10/06 05:03:05;;;;;;;2.37;1.30;;;30.70;95.60;;;;;;1856197;76;21071;-74
2022/10/06 05:05:36;;;;;;;2.67;1.20;;;30.70;95.60;;;;;;1844761;77;21101;-76
2022/10/06 05:08:06;;;;;;;2.30;1.40;;;30.80;95.50;;;;;;1850313;77;21157;-75
2022/10/06 05:10:38;;;;;;;2.40;1.00;;;30.80;95.40;;;;;;1846285;77;21735;-75
2022/10/06 05:13:10;;;;;;;1.80;1.10;;;30.80;95.40;;;;;;1844192;77;21169;-74
2022/10/06 05:15:41;;;;;;;3.52;1.40;;;30.90;95.50;;;;;;1846361;77;21210;-76
2022/10/06 05:18:12;;;;;;;4.20;1.20;;;31.00;95.00;;;;;;1804917;78;21212;-76
2022/10/06 05:20:42;;;;;;;4.95;1.60;;;31.00;94.60;;;;;;1832547;77;21191;-75
2022/10/06 05:23:13;;;;;;;5.83;2.27;;;31.10;94.20;;;;;;1815823;77;21200;-76
2022/10/06 05:25:47;;;;;;;3.22;1.42;;;31.10;94.60;;;;;;1819852;77;21204;-77
2022/10/06 05:28:18;;;;;;;2.80;1.00;;;31.10;94.70;;;;;;1780313;79;21690;-76
2022/10/06 05:30:52;;;;;;;3.05;1.30;;;31.20;95.00;;;;;;1781535;79;21145;-77
2022/10/06 05:33:24;;;;;;;2.83;1.00;;;31.30;94.50;;;;;;1788874;79;21656;-76
2022/10/06 05:35:57;;;;;;;2.40;1.00;;;31.30;94.10;;;;;;1847751;76;21628;-83
2022/10/06 05:38:29;;;;;;;2.50;1.05;;;31.50;94.30;;;;;;1856850;76;21121;-84
2022/10/06 05:41:02;;;;;;;3.20;1.17;;;31.60;93.70;;;;;;1855995;76;21173;-83
2022/10/06 05:43:34;;;;;;;1.98;1.10;;;31.60;93.60;;;;;;1842759;76;21146;-83
2022/10/06 05:46:07;;;;;;;2.25;1.02;;;31.70;93.90;;;;;;1845158;76;21124;-83
2022/10/06 05:48:38;;;;;;;1.60;0.80;;;31.70;93.70;;;;;;1842881;76;21173;-83
2022/10/06 05:51:10;;;;;;;2.47;1.05;;;31.80;93.30;;;;;;1854588;76;21115;-84
2022/10/06 05:53:41;;;;;;;2.10;0.90;;;31.80;93.80;;;;;;1856917;76;21588;-83
2022/10/06 05:56:14;;;;;;;2.20;0.90;;;31.60;93.70;;;;;;1865667;76;21158;-84
2022/10/06 05:58:47;;;;;;;2.27;1.12;;;31.50;93.50;;;;;;1825982;78;21141;-83
2022/10/06 06:01:20;;;;;;;2.47;0.98;;;31.40;93.60;;;;;;1803342;78;21218;-83
2022/10/06 06:03:54;;;;;;;3.77;0.90;;;31.20;94.00;;;;;;1844634;76;21155;-82
2022/10/06 06:06:27;;;;;;;2.22;1.05;;;31.00;94.10;;;;;;1823036;78;21658;-83
2022/10/06 06:09:00;;;;;;;3.55;1.20;;;30.80;94.30;;;;;;1811253;77;21105;-82
2022/10/06 06:11:32;;;;;;;2.92;1.12;;;30.70;94.70;;;;;;1807642;78;21144;-83
2022/10/06 06:14:05;;;;;;;3.75;1.20;;;30.80;94.60;;;;;;1850754;76;21133;-82
2022/10/06 06:16:38;;;;;;;3.15;0.98;;;30.90;94.80;;;;;;1852941;76;21169;-82
2022/10/06 06:19:10;;;;;;;1.85;1.22;;;31.00;94.60;;;;;;1846055;76;21082;-83
2022/10/06 06:21:41;;;;;;;3.17;1.15;;;31.00;94.60;;;;;;1839089;76;21176;-83
2022/10/06 06:24:12;;;;;;;4.15;1.07;;;30.90;94.60;;;;;;1857570;76;21237;-83
2022/10/06 06:26:43;;;;;;;3.58;1.72;;;30.80;95.20;;;;;;1854437;76;21150;-82
2022/10/06 06:29:13;;;;;;;1.98;1.20;;;30.70;95.30;;;;;;1853936;76;21601;-84
2022/10/06 06:32:02;;;;;;;3.75;1.40;;;30.60;95.30;;;;;;1874768;76;21248;-83
2022/10/06 06:34:33;;;;;;;2.15;1.05;;;30.50;95.50;;;;;;1837455;77;21985;-83
2022/10/06 06:37:04;;;;;;;2.65;1.12;;;30.40;95.40;;;;;;1843617;77;21134;-83
2022/10/06 06:39:36;;;;;;;2.05;1.10;;;30.30;95.20;;;;;;1828472;77;21198;-82
2022/10/06 06:42:07;;;;;;;1.65;1.00;;;30.20;95.50;;;;;;1840118;77;21160;-83
2022/10/06 06:44:38;;;;;;;3.40;1.00;;;30.10;95.70;;;;;;1859529;76;21654;-83
2022/10/06 06:47:09;;;;;;;4.12;1.40;;;30.10;95.90;;;;;;1862560;76;21224;-82
2022/10/06 06:49:41;;;;;;;2.67;0.98;;;30.10;96.00;;;;;;1862409;76;21126;-82
2022/10/06 06:52:11;;;;;;;1.82;0.93;;;30.00;96.30;;;;;;1867408;76;21130;-82
2022/10/06 06:54:42;;;;;;;2.05;1.40;;;30.00;96.30;;;;;;1846640;76;21130;-83
2022/10/06 06:57:13;;;;;;;2.25;1.10;;;30.00;96.20;;;;;;1855089;76;21135;-82
2022/10/06 06:59:44;;;;;;;3.08;1.30;;;30.00;96.30;;;;;;1861815;76;21082;-82
2022/10/06 07:02:15;;;;;;;5.12;1.40;;;30.10;96.00;;;;;;1854053;76;21167;-82
2022/10/06 07:04:45;;;;;;;1.92;0.95;;;30.20;95.80;;;;;;1836722;77;21194;-82
2022/10/06 07:07:16;;;;;;;2.40;1.02;;;30.20;95.60;;;;;;1856168;76;21064;-82
2022/10/06 07:09:47;;;;;;;2.10;1.10;;;30.30;95.20;;;;;;1868765;76;21088;-82
2022/10/06 07:12:17;;;;;;;1.70;0.93;;;30.50;95.60;;;;;;1851475;76;21090;-81
2022/10/06 07:25:12;;;;;;;7.90;2.30;;;30.80;95.50;;;;;;1837013;76;21063;-82
2022/10/06 07:27:37;;;;;;;5.97;1.62;;;30.80;95.60;;;;;;1812586;78;21213;-82
2022/10/06 07:30:09;;;;;;;3.10;0.93;;;30.80;95.60;;;;;;1791990;78;21157;-82
2022/10/06 07:32:40;;;;;;;4.03;0.70;;;30.80;95.40;;;;;;1759599;80;21131;-83
2022/10/06 07:35:12;;;;;;;3.70;1.05;;;30.80;95.30;;;;;;1783747;78;21174;-82
2022/10/06 07:37:45;;;;;;;1.92;1.15;;;30.70;95.10;;;;;;1803798;77;21180;-83
2022/10/06 07:40:24;;;;;;;1.85;0.88;;;30.60;95.50;;;;;;1832166;78;21130;-81
2022/10/06 07:42:54;;;;;;;3.77;1.12;;;30.60;95.30;;;;;;1816138;78;21506;-81
2022/10/06 07:48:00;;;;;;;2.25;0.88;;;30.60;95.40;;;;;;1814952;78;21155;-82
2022/10/06 07:50:33;;;;;;;2.67;0.78;;;30.60;95.40;;;;;;1835399;78;21199;-82
2022/10/06 07:53:07;;;;;;;2.72;0.75;;;30.60;95.10;;;;;;1808926;78;21133;-82
2022/10/06 07:55:38;;;;;;;2.98;0.80;;;30.60;95.00;;;;;;1813554;78;21588;-83
2022/10/06 07:58:12;;;;;;;2.15;0.80;;;30.60;95.00;;;;;;1813379;78;21209;-81
2022/10/06 08:00:45;;;;;;;1.32;0.78;;;30.70;95.00;;;;;;1820096;78;21207;-81
2022/10/06 08:03:21;;;;;;;3.47;0.90;;;30.70;95.00;;;;;;1819522;78;21114;-81
2022/10/06 08:05:51;;;;;;;2.37;1.00;;;30.70;95.30;;;;;;1815579;78;21197;-81
2022/10/06 08:08:23;;;;;;;2.65;0.80;;;30.80;95.20;;;;;;1738303;81;21127;-83
2022/10/06 08:10:56;;;;;;;2.05;0.90;;;30.90;95.00;;;;;;1770920;79;21086;-81
2022/10/06 08:13:31;;;;;;;2.70;0.80;;;31.00;94.90;;;;;;1770479;79;21159;-82
2022/10/06 08:16:04;;;;;;;1.65;0.85;;;31.00;94.60;;;;;;1804447;78;21095;-82
2022/10/06 08:18:38;;;;;;;2.10;0.80;;;31.00;94.70;;;;;;1808485;78;21785;-81
2022/10/06 08:21:13;;;;;;;2.65;1.07;;;31.00;94.80;;;;;;1835623;76;21111;-82
2022/10/06 08:23:46;;;;;;;2.12;0.80;;;30.90;94.70;;;;;;1844787;76;21179;-83
2022/10/06 08:26:19;;;;;;;2.90;0.72;;;30.90;94.70;;;;;;1820773;77;21246;-83
2022/10/06 08:28:52;;;;;;;3.58;1.15;;;30.80;94.90;;;;;;1791368;79;21696;-84
2022/10/06 08:31:24;;;;;;;3.12;0.80;;;30.80;94.60;;;;;;1889114;75;21207;-82
2022/10/06 08:33:56;;;;;;;1.80;0.80;;;30.80;95.00;;;;;;1860436;75;21191;-81
2022/10/06 08:36:29;;;;;;;1.90;0.78;;;30.80;95.10;;;;;;1881582;75;21700;-83
2022/10/06 08:39:06;;;;;;;2.60;0.80;;;30.80;94.90;;;;;;1877045;75;21147;-81
2022/10/06 08:41:34;;;;;;;1.82;0.98;;;30.80;95.10;;;;;;1835577;77;21209;-83
2022/10/06 08:44:08;;;;;;;2.10;1.07;;;30.80;95.20;;;;;;1882067;75;21591;-81
2022/10/06 08:46:41;;;;;;;1.27;0.60;;;30.80;94.80;;;;;;1884231;75;21193;-82
2022/10/06 08:49:15;;;;;;;1.40;0.80;;;30.80;94.70;;;;;;1868707;75;21189;-83
2022/10/06 08:51:47;;;;;;;1.65;0.60;;;30.80;94.40;;;;;;1841064;76;21712;-82
2022/10/06 08:54:20;;;;;;;1.37;0.60;;;30.80;94.50;;;;;;1839003;76;21374;-82
2022/10/06 08:56:53;;;;;;;2.65;0.75;;;30.80;94.60;;;;;;1825195;76;21716;-82
2022/10/06 08:59:23;;;;;;;2.30;0.90;;;30.80;94.80;;;;;;1839124;76;21194;-83
2022/10/06 09:01:54;;;;;;;2.00;1.05;;;30.80;94.70;;;;;;1869706;75;21721;-83
2022/10/06 09:04:27;;;;;;;2.00;0.90;;;30.80;94.20;;;;;;1881651;75;21040;-83
2022/10/06 09:07:02;;;;;;;2.98;0.80;;;30.80;94.40;;;;;;1874047;75;21204;-83
2022/10/06 09:09:36;;;;;;;1.62;0.90;;;30.80;94.50;;;;;;1866256;76;21076;-83
2022/10/06 09:12:09;;;;;;;2.25;1.10;;;30.80;94.80;;;;;;1881463;75;21182;-82
2022/10/06 09:14:42;;;;;;;1.82;0.85;;;30.80;94.70;;;;;;1844772;76;21139;-83
2022/10/06 09:17:16;;;;;;;2.52;0.80;;;30.80;94.30;;;;;;1879817;75;21174;-83
2022/10/06 09:19:49;;;;;;;2.47;1.12;;;30.80;94.30;;;;;;1826799;76;21217;-83
2022/10/06 09:22:22;;;;;;;2.65;1.10;;;30.70;94.10;;;;;;1873266;75;21190;-83
2022/10/06 09:24:56;;;;;;;2.47;1.22;;;30.60;94.50;;;;;;1864095;75;21197;-83
2022/10/06 09:27:29;;;;;;;3.10;1.32;;;30.60;94.50;;;;;;1875542;75;21159;-82
2022/10/06 09:30:03;;;;;;;3.92;1.00;;;30.60;94.90;;;;;;1871409;75;21216;-83
2022/10/06 09:32:35;;;;;;;2.00;0.95;;;30.60;95.10;;;;;;1872169;75;21559;-83
2022/10/06 09:35:11;;;;;;;4.28;1.22;;;30.50;94.80;;;;;;1869053;75;22155;-83
2022/10/06 09:37:56;;;;;;;2.45;1.20;;;30.50;95.10;;;;;;1865759;75;21128;-83
2022/10/06 09:40:31;;;;;;;1.72;1.00;;;30.50;95.10;;;;;;1890990;75;21138;-82
2022/10/06 09:43:05;;;;;;;4.15;1.37;;;30.50;95.00;;;;;;1871286;75;21221;-83
2022/10/06 09:45:36;;;;;;;3.83;1.10;;;30.50;95.00;;;;;;1874918;75;21080;-82
2022/10/06 09:48:10;;;;;;;2.00;1.30;;;30.50;94.90;;;;;;1840977;77;21615;-84
2022/10/06 09:50:41;;;;;;;2.00;1.30;;;30.50;95.40;;;;;;1845184;77;21152;-77
2022/10/06 09:53:15;;;;;;;3.70;1.70;;;30.60;95.00;;;;;;1846972;76;21536;-76
2022/10/06 09:55:51;;;;;;;1.82;1.12;;;30.50;95.00;;;;;;1845126;76;21678;-78
2022/10/06 09:58:23;;;;;;;2.22;1.00;;;30.60;95.70;;;;;;1872978;75;21092;-78
2022/10/06 10:00:56;;;;;;;2.67;0.98;;;30.60;95.30;;;;;;1826668;77;21144;-77
2022/10/06 10:03:31;;;;;;;3.35;1.10;;;30.60;95.10;;;;;;1866259;75;21166;-79
2022/10/06 10:06:01;;;;;;;1.90;1.02;;;30.60;95.00;;;;;;1870551;75;21187;-78
2022/10/06 10:08:38;;;;;;;4.60;1.45;;;30.60;94.60;;;;;;1836655;76;21182;-78
2022/10/06 10:12:23;;;;;;;2.20;1.07;;;30.50;93.90;;;;;;1826717;77;21182;-77
2022/10/06 10:13:43;;;;;;;2.60;1.30;;;30.20;94.30;;;;;;1850943;75;21976;-79
2022/10/06 10:16:19;;;;;;;3.72;1.20;;;29.90;94.50;;;;;;1898932;75;21158;-79
2022/10/06 10:18:49;;;;;;;2.50;0.98;;;29.70;95.00;;;;;;1872375;75;21626;-76
2022/10/06 10:21:24;;;;;;;2.55;1.30;;;29.50;95.70;;;;;;1834240;76;21112;-76
2022/10/06 10:23:57;;;;;;;4.03;1.27;;;29.20;96.70;;;;;;1844644;76;21716;-76
2022/10/06 10:26:28;;;;;;;3.80;1.22;;;29.00;97.80;;;;;;1835104;76;21100;-77
2022/10/06 10:28:58;;;;;;;2.83;1.30;;;28.90;98.20;;;;;;1869919;75;21091;-76
2022/10/06 10:31:30;;;;;;;3.67;1.17;;;28.80;98.70;;;;;;1862126;76;21134;-75
2022/10/06 10:34:01;;;;;;;3.70;1.55;;;28.70;99.20;;;;;;1861745;75;21237;-77
2022/10/06 10:36:37;;;;;;;4.70;1.60;;;28.60;99.40;;;;;;1820563;77;21238;-76
2022/10/06 10:39:11;;;;;;;3.20;1.35;;;28.60;99.50;;;;;;1868354;76;21544;-76
2022/10/06 10:41:44;;;;;;;4.65;1.40;;;28.50;99.70;;;;;;1884405;75;21107;-75
2022/10/06 10:44:18;;;;;;;3.55;1.25;;;28.40;99.80;;;;;;1889987;75;21658;-79
2022/10/06 10:46:52;;;;;;;3.10;1.10;;;28.40;99.90;;;;;;1890668;75;21656;-77
2022/10/06 10:49:25;;;;;;;2.87;1.35;;;28.40;99.80;;;;;;1884569;75;21189;-77
2022/10/06 10:51:58;;;;;;;2.83;1.40;;;28.30;99.70;;;;;;1878638;75;21087;-77
2022/10/06 10:54:32;;;;;;;2.95;1.30;;;28.30;99.60;;;;;;1881072;74;21645;-77
2022/10/06 10:57:02;;;;;;;5.10;1.35;;;28.30;99.70;;;;;;1875297;75;21102;-77
2022/10/06 10:59:36;;;;;;;3.58;1.62;;;28.20;99.80;;;;;;1873150;75;21610;-77
2022/10/06 11:02:09;;;;;;;3.12;1.62;;;28.20;99.90;;;;;;1879062;74;21212;-76
2022/10/06 11:04:42;;;;;;;4.40;2.10;;;28.20;99.90;;;;;;1882154;74;21823;-77
2022/10/06 11:07:16;;;;;;;2.55;1.55;;;28.20;99.90;;;;;;1882527;75;21209;-77
2022/10/06 11:09:48;;;;;;;3.27;1.70;;;28.20;99.90;;;;;;1874439;75;21250;-86
2022/10/06 11:12:19;;;;;;;5.35;1.57;;;28.30;99.90;;;;;;1900522;75;21169;-87
2022/10/06 11:14:52;;;;;;;3.02;2.08;;;28.30;99.90;;;;;;1896172;74;21560;-87
2022/10/06 11:17:24;;;;;;;5.60;1.80;;;28.30;99.90;;;;;;1890052;74;21059;-87
2022/10/06 11:19:56;;;;;;;4.25;1.57;;;28.30;99.90;;;;;;1882127;74;21183;-87
2022/10/06 11:22:29;;;;;;;4.87;1.60;;;28.30;99.90;;;;;;1887386;74;21116;-86
2022/10/06 11:25:02;;;;;;;4.58;1.70;;;28.30;99.90;;;;;;1895404;75;21124;-87
2022/10/06 11:27:36;;;;;;;3.83;1.57;;;28.20;99.70;;;;;;1872352;74;21064;-86
2022/10/06 11:30:07;;;;;;;3.92;1.52;;;28.20;99.60;;;;;;1879382;75;21202;-87
2022/10/06 11:32:39;;;;;;;3.25;1.45;;;28.20;99.70;;;;;;1876564;75;21113;-87
2022/10/06 11:35:12;;;;;;;5.75;2.27;;;28.20;99.70;;;;;;1807118;77;21182;-87
2022/10/06 11:37:46;;;;;;;5.22;2.45;;;28.20;99.90;;;;;;1810681;78;21575;-88
2022/10/06 11:40:19;;;;;;;4.40;2.17;;;28.20;99.90;;;;;;1854222;75;21293;-87
2022/10/06 11:42:52;;;;;;;9.03;5.45;;;28.20;99.90;;;;;;1877252;75;21134;-87
2022/10/06 11:45:28;;;;;;;15.55;10.75;;;28.10;99.90;;;;;;1861551;75;21131;-87
2022/10/06 11:48:02;;;;;;;13.20;8.43;;;28.10;99.90;;;;;;1849478;76;21165;-87
2022/10/06 11:50:35;;;;;;;10.95;6.05;;;28.20;99.90;;;;;;1807275;78;21258;-87
2022/10/06 11:53:06;;;;;;;8.85;5.70;;;28.20;99.90;;;;;;1811071;77;21164;-86
2022/10/06 11:55:37;;;;;;;8.98;3.98;;;28.20;99.90;;;;;;1848558;75;21177;-86
2022/10/06 11:58:10;;;;;;;5.42;2.65;;;28.20;99.90;;;;;;1825368;77;21077;-87
2022/10/06 12:00:45;;;;;;;7.10;3.60;;;28.20;99.70;;;;;;1843262;76;21752;-87
2022/10/06 12:03:23;;;;;;;7.40;3.22;;;28.20;99.60;;;;;;1839454;75;21630;-87
2022/10/06 12:05:55;;;;;;;6.72;2.77;;;28.20;99.80;;;;;;1877680;75;21154;-86
2022/10/06 12:08:31;;;;;;;5.10;2.22;;;28.20;99.80;;;;;;1868830;75;21112;-87
2022/10/06 12:11:01;;;;;;;;;;;28.20;99.80;;;;;;1901039;74;21188;-87
2022/10/06 12:13:33;;;;;;;5.97;2.62;;;28.20;99.70;;;;;;1895419;75;20164;-88
2022/10/06 12:16:08;;;;;;;7.03;3.45;;;28.20;99.30;;;;;;1856931;76;21200;-88
2022/10/06 12:18:42;;;;;;;5.00;2.52;;;28.20;99.40;;;;;;1898520;75;21232;-86
2022/10/06 12:21:16;;;;;;;4.92;2.37;;;28.20;99.60;;;;;;1899079;74;21103;-87
2022/10/06 12:23:49;;;;;;;5.62;2.33;;;28.20;99.70;;;;;;1859295;75;21245;-87
2022/10/06 12:26:22;;;;;;;4.25;2.22;;;28.20;99.60;;;;;;1880285;74;21217;-87
2022/10/06 12:28:56;;;;;;;6.58;2.37;;;28.20;99.60;;;;;;1882256;74;21184;-85
2022/10/06 12:31:29;;;;;;;10.63;2.80;;;28.20;99.60;;;;;;1876882;75;21630;-85
2022/10/06 12:34:00;;;;;;;6.67;2.90;;;28.20;99.50;;;;;;1833642;76;21183;-85
2022/10/06 12:36:31;;;;;;;4.95;2.20;;;28.20;99.40;;;;;;1857058;75;21195;-85
2022/10/06 12:39:05;;;;;;;5.03;2.58;;;28.20;99.50;;;;;;1884341;75;21193;-85
2022/10/06 12:41:37;;;;;;;4.08;2.80;;;28.30;99.40;;;;;;1873185;75;22022;-86
2022/10/06 12:44:10;;;;;;;7.03;2.40;;;28.30;99.30;;;;;;1806953;78;21151;-83
2022/10/06 12:46:45;;;;;;;4.70;2.30;;;28.30;99.30;;;;;;1826747;76;21222;-84
2022/10/06 12:49:24;;;;;;;5.83;2.02;;;28.30;99.30;;;;;;1866396;75;21081;-84
2022/10/06 12:51:55;;;;;;;3.92;2.22;;;28.30;99.20;;;;;;1880455;75;21892;-84
2022/10/06 12:54:29;;;;;;;7.00;1.92;;;28.30;99.20;;;;;;1871675;75;21150;-84
2022/10/06 12:57:03;;;;;;;5.78;1.80;;;28.30;99.20;;;;;;1863435;75;21127;-83
2022/10/06 12:59:37;;;;;;;6.45;2.10;;;28.30;99.20;;;;;;1792516;78;21215;-84
2022/10/06 13:02:09;;;;;;;5.55;2.27;;;28.30;99.10;;;;;;1851314;75;21079;-85
2022/10/06 13:04:43;;;;;;;9.10;5.03;;;28.30;99.40;;;;;;1813657;77;21122;-84
2022/10/06 13:07:28;;;;;;;10.35;4.25;;;28.30;99.40;;;;;;1879365;75;21189;-85
2022/10/06 13:10:01;;;;;;;9.13;3.85;;;28.30;99.70;;;;;;1824228;78;21152;-85
2022/10/06 13:12:34;;;;;;;8.53;4.12;;;28.30;99.50;;;;;;1830068;78;21239;-85
2022/10/06 13:15:07;;;;;;;6.12;2.98;;;28.30;99.50;;;;;;1839104;76;21216;-85
2022/10/06 13:17:40;;;;;;;8.70;3.25;;;28.30;99.50;;;;;;1841380;76;21211;-84
2022/10/06 13:20:13;;;;;;;7.95;3.42;;;28.30;99.50;;;;;;1826011;77;21200;-84
2022/10/06 13:22:44;;;;;;;6.03;3.20;;;28.30;99.70;;;;;;1840830;77;21148;-85
2022/10/06 13:25:15;;;;;;;7.53;2.92;;;28.30;99.80;;;;;;1879809;75;21918;-84
2022/10/06 13:27:49;;;;;;;10.43;2.40;;;28.30;99.80;;;;;;1882273;75;21135;-83
2022/10/06 13:30:22;;;;;;;5.60;2.85;;;28.30;99.90;;;;;;1850324;76;21588;-85
2022/10/06 13:32:54;;;;;;;4.40;2.40;;;28.30;99.90;;;;;;1832119;77;21218;-85